Time;durP1;ratioP1;P1;durP2;ratioP2;P2;SDS_P1;SDS_P2;PMS_P1;PMS_P2;Temp;Humidity;BMP_temperature;BMP_pressure;BME280_temperature;BME280_humidity;BME280_pressure;Samples;Min_cycle;Max_cycle;Signal;HPM_P1;HPM_P2
2022/08/26 00:01:57;;;;;;;35.92;32.08;;;;;;;21.35;76.81;69151.91;4910451;29;20132;-77
2022/08/26 00:04:23;;;;;;;37.17;33.17;;;;;;;21.39;76.81;69157.06;4911415;29;20496;-77
2022/08/26 00:06:49;;;;;;;41.47;36.95;;;;;;;21.35;78.23;69149.75;4910122;29;20563;-77
2022/08/26 00:09:15;;;;;;;42.78;38.17;;;;;;;21.32;79.12;69140.31;4911412;29;20132;-77
2022/08/26 00:11:40;;;;;;;45.20;40.30;;;;;;;21.29;79.52;69142.88;4911228;29;20052;-77
2022/08/26 00:14:05;;;;;;;49.53;43.20;;;;;;;21.33;79.83;69150.16;4914392;29;20040;-77
2022/08/26 00:16:31;;;;;;;50.95;44.72;;;;;;;;;;4911216;29;20500;-78
2022/08/26 00:18:56;;;;;;;53.03;47.00;;;;;;;;;;4911130;29;20040;-77
2022/08/26 00:21:22;;;;;;;54.60;48.10;;;;;;;21.22;82.01;69137.56;4911892;29;20059;-77
2022/08/26 00:23:47;;;;;;;59.10;52.70;;;;;;;21.18;83.81;69130.31;4896791;29;20061;-77
2022/08/26 00:26:14;;;;;;;60.05;52.58;;;;;;;21.11;83.76;69116.88;4891273;29;20067;-77
2022/08/26 00:28:39;;;;;;;62.90;53.50;;;;;;;;;;4875847;29;20602;-76
2022/08/26 00:31:04;;;;;;;61.42;54.35;;;;;;;21.11;84.17;69125.00;4890853;29;20075;-77
2022/08/26 00:33:30;;;;;;;68.47;61.20;;;;;;;21.05;85.80;69115.41;4892948;29;20081;-77
2022/08/26 00:35:56;;;;;;;70.03;62.45;;;;;;;21.01;86.40;69113.56;4892111;29;20056;-77
2022/08/26 00:38:22;;;;;;;72.00;63.92;;;;;;;21.02;86.43;69114.69;4891611;29;20044;-78
2022/08/26 00:40:51;;;;;;;73.38;65.60;;;;;;;21.01;87.08;69110.84;4904255;29;20406;-77
2022/08/26 00:43:17;;;;;;;75.53;66.97;;;;;;;20.95;87.46;69104.56;4907902;29;20488;-76
2022/08/26 00:45:49;;;;;;;75.18;67.03;;;;;;;20.94;88.83;69104.00;4909626;29;20087;-77
2022/08/26 00:48:18;;;;;;;81.72;72.93;;;;;;;20.95;89.11;69105.13;4894038;29;20074;-77
2022/08/26 00:50:43;;;;;;;;;;;;;;;;;;4910555;29;20040;-78
2022/08/26 00:53:20;;;;;;;83.30;69.45;;;;;;;;;;4909175;29;20053;-78
2022/08/26 00:55:53;;;;;;;87.25;77.65;;;;;;;20.85;90.97;69093.69;4909017;29;20048;-77
2022/08/26 00:58:21;;;;;;;89.10;79.80;;;;;;;20.88;90.73;69096.53;4909226;29;20105;-76
2022/08/26 01:00:46;;;;;;;87.13;76.57;;;;;;;;;;4908769;29;20504;-76
2022/08/26 01:03:15;;;;;;;89.10;77.88;;;;;;;20.85;91.49;69095.81;4909326;29;20051;-78
2022/08/26 01:05:41;;;;;;;92.10;81.15;;;;;;;;;;4908233;29;20036;-77
2022/08/26 01:08:06;;;;;;;91.15;81.35;;;;;;;20.81;91.49;69088.53;4909273;29;20389;-78
2022/08/26 01:10:32;;;;;;;92.75;83.00;;;;;;;20.76;92.43;69083.38;4910071;29;20542;-76
2022/08/26 01:13:04;;;;;;;93.60;82.32;;;;;;;20.73;93.15;69079.97;4909946;29;20100;-77
2022/08/26 01:15:33;;;;;;;91.53;81.40;;;;;;;;;;4900273;29;20070;-78
2022/08/26 01:17:58;;;;;;;89.63;76.60;;;;;;;;;;4905441;29;20045;-77
2022/08/26 01:20:30;;;;;;;97.05;86.80;;;;;;;;;;4897046;29;20039;-77
2022/08/26 01:22:57;;;;;;;98.30;85.82;;;;;;;;;;4910497;29;20040;-78
2022/08/26 01:25:24;;;;;;;93.55;83.30;;;;;;;;;;4904792;29;20044;-78
2022/08/26 01:27:50;;;;;;;97.10;86.47;;;;;;;;;;4904334;29;20571;-78
2022/08/26 01:30:15;;;;;;;100.97;90.03;;;;;;;;;;4909540;29;20051;-77
2022/08/26 01:32:42;;;;;;;102.03;90.80;;;;;;;20.52;95.89;69056.50;4911492;29;20634;-78
2022/08/26 01:35:08;;;;;;;100.15;84.75;;;;;;;;;;4909303;29;20092;-78
2022/08/26 01:37:36;;;;;;;101.10;87.72;;;;;;;20.51;95.75;69055.94;4909771;29;20044;-78
2022/08/26 01:40:04;;;;;;;97.80;83.78;;;;;;;20.48;96.86;69052.50;4910120;29;20139;-78
2022/08/26 01:42:30;;;;;;;103.82;92.57;;;;;;;20.44;98.36;69047.34;4909151;29;20048;-78
2022/08/26 01:45:11;;;;;;;106.28;91.35;;;;;;;20.41;98.21;69044.47;4908179;29;20602;-77
2022/08/26 01:47:38;;;;;;;95.95;82.43;;;;;;;20.40;97.90;69042.75;4907232;29;20054;-77
2022/08/26 01:50:10;;;;;;;104.90;88.38;;;;;;;20.37;98.93;69039.91;4907296;29;20164;-77
2022/08/26 01:52:40;;;;;;;101.70;90.03;;;;;;;20.32;99.81;69034.19;4904316;29;20127;-77
2022/08/26 01:55:06;;;;;;;103.10;89.15;;;;;;;20.33;98.86;69034.75;4898632;29;20044;-77
2022/08/26 01:57:31;;;;;;;101.93;88.30;;;;;;;;;;4910669;29;20119;-77
2022/08/26 02:00:01;;;;;;;105.30;89.05;;;;;;;20.26;100.00;69027.34;4908711;29;20786;-78
2022/08/26 02:02:27;;;;;;;104.47;86.60;;;;;;;20.19;100.00;69019.31;4909501;29;20064;-78
2022/08/26 02:04:58;;;;;;;108.97;90.45;;;;;;;20.21;100.00;69022.19;4909199;29;20047;-77
2022/08/26 02:07:24;;;;;;;105.80;86.97;;;;;;;;;;4914296;29;20217;-78
2022/08/26 02:09:49;;;;;;;105.53;91.07;;;;;;;20.16;100.00;69016.47;4909265;29;20051;-76
2022/08/26 02:12:18;;;;;;;108.68;95.85;;;;;;;20.12;100.00;69011.34;4908497;29;20036;-76
2022/08/26 02:14:49;;;;;;;107.20;92.40;;;;;;;20.11;100.00;69015.56;4910602;29;20051;-77
2022/08/26 02:17:16;;;;;;;106.68;93.88;;;;;;;20.15;100.00;69017.47;4909125;29;20075;-77
2022/08/26 02:19:46;;;;;;;105.53;84.95;;;;;;;20.15;100.00;69014.75;4909989;29;20132;-77
2022/08/26 02:22:16;;;;;;;106.40;90.03;;;;;;;20.14;100.00;69014.19;4908865;29;20491;-77
2022/08/26 02:24:51;;;;;;;109.25;90.85;;;;;;;20.15;100.00;69015.31;4908703;29;20062;-78
2022/08/26 02:27:20;;;;;;;102.38;85.22;;;;;;;20.19;100.00;69019.31;4903688;29;20196;-77
2022/08/26 02:29:50;;;;;;;102.95;90.00;;;;;;;20.15;100.00;69017.47;4892671;29;20040;-77
2022/08/26 02:32:15;;;;;;;107.32;87.90;;;;;;;20.15;100.00;69014.75;4880822;29;20087;-77
2022/08/26 02:34:40;;;;;;;108.97;86.03;;;;;;;20.19;100.00;69019.88;4891000;29;20066;-76
2022/08/26 02:37:09;;;;;;;107.43;85.10;;;;;;;20.14;100.00;69013.59;4907219;29;20063;-78
2022/08/26 02:39:35;;;;;;;105.93;84.82;;;;;;;20.15;100.00;69014.75;4907545;29;20040;-77
2022/08/26 02:42:01;;;;;;;103.70;81.05;;;;;;;;;;4909846;29;20759;-78
2022/08/26 02:44:26;;;;;;;102.97;78.95;;;;;;;20.19;100.00;69019.88;4908174;29;20250;-78
2022/08/26 02:46:52;;;;;;;104.13;83.80;;;;;;;20.21;100.00;69027.59;4908946;29;20044;-77
2022/08/26 02:49:18;;;;;;;101.90;79.10;;;;;;;;;;4909680;29;20137;-78
2022/08/26 02:51:44;;;;;;;100.60;78.00;;;;;;;20.19;100.00;69025.28;4910038;29;20504;-77
2022/08/26 02:54:09;;;;;;;98.63;80.35;;;;;;;20.20;100.00;69021.06;4907491;29;20056;-77
2022/08/26 02:56:35;;;;;;;102.78;84.95;;;;;;;20.18;100.00;69013.34;4909408;29;20051;-76
2022/08/26 02:59:00;;;;;;;101.22;74.78;;;;;;;;;;4908916;29;20036;-77
2022/08/26 03:01:27;;;;;;;95.23;70.00;;;;;;;;;;4911832;29;20044;-77
2022/08/26 03:03:53;;;;;;;92.82;74.57;;;;;;;20.18;100.00;69018.19;4911773;29;20826;-78
2022/08/26 03:06:18;;;;;;;88.32;71.35;;;;;;;;;;4908245;29;20063;-76
2022/08/26 03:08:44;;;;;;;90.03;73.18;;;;;;;20.24;100.00;69025.03;4911377;29;20044;-77
2022/08/26 03:11:10;;;;;;;91.43;76.28;;;;;;;;;;4910134;29;20047;-76
2022/08/26 03:13:36;;;;;;;88.78;70.63;;;;;;;20.21;100.00;69024.31;4911955;29;20507;-77
2022/08/26 03:16:02;;;;;;;86.38;63.10;;;;;;;20.25;100.00;69028.88;4912487;29;20448;-78
2022/08/26 03:18:27;;;;;;;87.03;67.82;;;;;;;;;;4912904;29;20519;-77
2022/08/26 03:20:53;;;;;;;83.25;70.07;;;;;;;;;;4912352;29;20044;-78
2022/08/26 03:23:18;;;;;;;88.63;62.45;;;;;;;20.31;100.00;69033.03;4911358;29;20040;-77
2022/08/26 03:25:50;;;;;;;86.30;67.88;;;;;;;20.26;100.00;69027.34;4902180;29;20554;-76
2022/08/26 03:28:16;;;;;;;82.15;64.95;;;;;;;;;;4908407;29;20037;-77
2022/08/26 03:30:43;;;;;;;79.25;66.25;;;;;;;20.28;100.00;69032.31;4911658;29;20424;-77
2022/08/26 03:33:10;;;;;;;83.53;66.78;;;;;;;20.31;100.00;69033.03;4912825;29;20135;-78
2022/08/26 03:35:36;;;;;;;77.22;62.80;;;;;;;;;;4910602;29;20059;-78
2022/08/26 03:38:03;;;;;;;77.57;58.58;;;;;;;20.32;100.00;69034.19;4913299;29;20127;-77
2022/08/26 03:40:32;;;;;;;78.82;63.28;;;;;;;20.29;100.00;69031.34;4911692;29;20040;-77
2022/08/26 03:42:58;;;;;;;75.28;61.55;;;;;;;;;;4912696;29;20407;-77
2022/08/26 03:45:23;;;;;;;76.97;59.22;;;;;;;;;;4906594;29;20044;-78
2022/08/26 03:47:48;;;;;;;75.90;61.23;;;;;;;20.25;100.00;69026.78;4892654;29;20041;-77
2022/08/26 03:50:15;;;;;;;73.68;60.10;;;;;;;;;;4908530;29;20359;-77
2022/08/26 03:52:41;;;;;;;71.82;58.83;;;;;;;;;;4911195;29;20048;-77
2022/08/26 03:55:07;;;;;;;74.38;61.33;;;;;;;20.32;100.00;69036.91;4911595;29;20040;-77
2022/08/26 03:57:33;;;;;;;70.25;52.97;;;;;;;20.31;100.00;69027.63;4913793;29;20123;-78
2022/08/26 03:59:58;;;;;;;72.45;59.25;;;;;;;20.28;100.00;69029.59;4916170;29;20057;-77
2022/08/26 04:02:24;;;;;;;70.97;58.47;;;;;;;20.25;100.00;69026.19;4912876;29;20036;-76
2022/08/26 04:04:50;;;;;;;71.97;53.75;;;;;;;20.33;100.00;69038.03;4914284;29;20730;-78
2022/08/26 04:07:15;;;;;;;72.05;57.75;;;;;;;20.29;100.00;69030.78;4913238;29;20044;-78
2022/08/26 04:09:40;;;;;;;65.60;57.13;;;;;;;20.24;100.00;69025.63;4916277;29;20040;-78
2022/08/26 04:12:06;;;;;;;67.70;56.90;;;;;;;;;;4913292;29;20040;-77
2022/08/26 04:14:34;;;;;;;70.70;56.65;;;;;;;20.27;100.00;69031.19;4915107;29;20107;-78
2022/08/26 04:16:59;;;;;;;70.68;51.97;;;;;;;;;;4916429;29;20040;-77
2022/08/26 04:19:25;;;;;;;69.15;54.70;;;;;;;20.27;100.00;69029.03;4911955;29;20264;-76
2022/08/26 04:21:51;;;;;;;69.15;56.50;;;;;;;20.26;100.00;69027.34;4912643;29;20036;-78
2022/08/26 04:24:18;;;;;;;65.38;51.85;;;;;;;20.32;100.00;69034.19;4945627;23;20168;-78
2022/08/26 04:26:43;;;;;;;61.22;53.20;;;;;;;20.32;100.00;69033.63;4934548;29;20510;-78
2022/08/26 04:29:16;;;;;;;65.20;52.45;;;;;;;20.33;100.00;69035.34;4934596;29;20059;-79
2022/08/26 04:31:42;;;;;;;63.28;47.75;;;;;;;20.32;100.00;69036.34;4936288;29;20048;-79
2022/08/26 04:34:08;;;;;;;57.08;49.90;;;;;;;20.26;100.00;69030.03;4928580;29;20055;-78
2022/08/26 04:36:34;;;;;;;62.05;50.15;;;;;;;20.25;100.00;69026.78;4935125;29;20685;-78
2022/08/26 04:39:01;;;;;;;59.15;49.72;;;;;;;20.29;100.00;69030.78;4935002;29;20550;-79
2022/08/26 04:41:27;;;;;;;60.15;49.83;;;;;;;20.25;100.00;69029.47;4935478;29;20079;-78
2022/08/26 04:43:52;;;;;;;56.70;44.70;;;;;;;20.34;100.00;69035.91;4935465;29;20494;-78
2022/08/26 04:46:21;;;;;;;55.03;47.17;;;;;;;;;;4934840;29;20138;-79
2022/08/26 04:48:47;;;;;;;59.10;47.90;;;;;;;20.30;100.00;69031.91;4935477;29;20106;-78
2022/08/26 04:51:13;;;;;;;56.13;50.03;;;;;;;20.29;100.00;69031.34;4937180;29;20043;-78
2022/08/26 04:53:38;;;;;;;60.10;47.35;;;;;;;;;;4936112;29;20928;-78
2022/08/26 04:56:04;;;;;;;58.97;49.27;;;;;;;;;;4933346;29;20503;-78
2022/08/26 04:58:29;;;;;;;57.80;47.08;;;;;;;20.26;100.00;69032.75;4935333;29;20497;-78
2022/08/26 05:00:55;;;;;;;55.63;47.50;;;;;;;20.23;100.00;69018.50;4931964;29;20047;-78
2022/08/26 05:03:22;;;;;;;58.97;47.60;;;;;;;20.27;100.00;69028.47;4933540;29;20089;-78
2022/08/26 05:05:48;;;;;;;53.38;46.22;;;;;;;20.19;100.00;69019.31;4934333;29;20609;-78
2022/08/26 05:08:15;;;;;;;55.35;44.58;;;;;;;20.22;100.00;69023.31;4935047;29;20048;-78
2022/08/26 05:10:43;;;;;;;54.45;45.40;;;;;;;20.23;100.00;69024.47;4929714;29;20078;-78
2022/08/26 05:13:09;;;;;;;53.95;46.70;;;;;;;20.23;100.00;69024.47;4933543;29;20047;-78
2022/08/26 05:15:35;;;;;;;53.65;44.22;;;;;;;20.26;100.00;69027.34;4932265;29;20055;-78
2022/08/26 05:18:06;;;;;;;50.92;43.83;;;;;;;20.21;100.00;69021.63;4934895;29;20042;-78
2022/08/26 05:20:37;;;;;;;56.20;43.90;;;;;;;20.30;100.00;69026.50;4926980;29;20056;-78
2022/08/26 05:23:03;;;;;;;52.67;46.42;;;;;;;20.28;100.00;69029.59;4935847;29;20067;-78
2022/08/26 05:25:29;;;;;;;51.20;41.70;;;;;;;20.27;100.00;69028.47;4931689;29;20055;-78
2022/08/26 05:27:55;;;;;;;52.55;41.70;;;;;;;20.29;100.00;69030.78;4940646;29;20035;-78
2022/08/26 05:30:20;;;;;;;51.75;38.72;;;;;;;;;;4930583;29;20079;-78
2022/08/26 05:32:48;;;;;;;49.97;39.30;;;;;;;20.26;100.00;69027.91;4932160;29;20044;-78
2022/08/26 05:35:14;;;;;;;51.70;42.75;;;;;;;20.24;100.00;69025.63;4935965;28;20406;-78
2022/08/26 05:37:40;;;;;;;49.90;40.00;;;;;;;20.25;100.00;69020.78;4909227;29;20050;-78
2022/08/26 05:40:05;;;;;;;51.63;41.08;;;;;;;;;;4935098;29;20431;-78
2022/08/26 05:42:31;;;;;;;47.00;38.70;;;;;;;20.26;100.00;69033.31;4934199;29;20052;-79
2022/08/26 05:44:56;;;;;;;42.42;37.53;;;;;;;20.33;100.00;69035.34;4932197;29;20062;-78
2022/08/26 05:47:23;;;;;;;43.60;36.95;;;;;;;20.31;100.00;69033.03;4930811;29;20759;-78
2022/08/26 05:49:48;;;;;;;48.50;37.45;;;;;;;;;;4930004;29;20050;-78
2022/08/26 05:52:13;;;;;;;38.92;34.65;;;;;;;20.40;100.00;69043.34;4932314;29;20118;-78
2022/08/26 05:54:39;;;;;;;41.42;35.45;;;;;;;20.39;100.00;69041.63;4930430;28;20440;-78
2022/08/26 05:57:04;;;;;;;41.30;35.70;;;;;;;20.34;100.00;69036.50;4937144;29;20045;-78
2022/08/26 05:59:30;;;;;;;41.65;32.50;;;;;;;20.40;100.00;69042.75;4931214;29;20087;-78
2022/08/26 06:01:55;;;;;;;41.25;32.50;;;;;;;20.35;100.00;69037.06;4936179;29;20039;-78
2022/08/26 06:04:22;;;;;;;39.10;31.45;;;;;;;20.34;100.00;69036.50;4927498;29;20046;-78
2022/08/26 06:06:47;;;;;;;35.70;31.95;;;;;;;20.37;100.00;69042.63;4929426;29;20040;-78
2022/08/26 06:09:12;;;;;;;40.17;32.83;;;;;;;20.36;100.00;69041.47;4926415;29;20097;-78
2022/08/26 06:11:38;;;;;;;35.92;31.35;;;;;;;20.39;100.00;69041.63;4933838;29;20040;-78
2022/08/26 06:14:05;;;;;;;33.67;30.05;;;;;;;20.40;100.00;69042.75;4929700;29;20077;-78
2022/08/26 06:16:34;;;;;;;32.45;27.13;;;;;;;20.54;99.31;69058.22;4931015;29;20408;-78
2022/08/26 06:19:01;;;;;;;35.80;29.10;;;;;;;;;;4932068;29;20054;-78
2022/08/26 06:21:29;;;;;;;32.60;29.10;;;;;;;20.48;99.15;69046.50;4932050;29;20538;-78
2022/08/26 06:26:47;;;;;;;37.40;32.33;;;;;;;20.39;99.58;69036.22;4927499;29;20130;-78
2022/08/26 06:29:13;;;;;;;36.15;30.08;;;;;;;20.50;98.70;69054.78;4928521;29;20537;-80
2022/08/26 06:31:38;;;;;;;38.22;28.58;;;;;;;20.45;98.99;69049.03;4927216;29;20071;-79
2022/08/26 06:34:05;;;;;;;36.00;29.77;;;;;;;20.50;99.42;69057.47;4932566;29;20043;-79
2022/08/26 06:36:31;;;;;;;39.13;29.67;;;;;;;;;;4942264;29;20047;-79
2022/08/26 06:39:04;;;;;;;34.88;29.10;;;;;;;20.57;98.34;69064.34;4939543;29;20107;-79
2022/08/26 06:41:30;;;;;;;32.95;28.92;;;;;;;20.63;97.48;69068.50;4936603;29;20040;-79
2022/08/26 06:43:56;;;;;;;36.00;31.25;;;;;;;20.54;98.21;69058.22;4931259;29;20038;-79
2022/08/26 06:46:22;;;;;;;38.03;31.50;;;;;;;20.53;98.50;69057.66;4918066;29;20122;-79
2022/08/26 06:48:48;;;;;;;34.13;30.13;;;;;;;20.58;97.76;69063.38;4932691;29;20062;-79
2022/08/26 06:51:13;;;;;;;38.70;31.13;;;;;;;;;;4917573;29;20090;-79
2022/08/26 06:53:41;;;;;;;33.07;29.07;;;;;;;20.71;97.63;69077.66;4929069;29;20442;-79
2022/08/26 06:56:09;;;;;;;38.30;31.98;;;;;;;20.61;97.69;69066.81;4939226;29;20279;-79
2022/08/26 06:58:36;;;;;;;38.42;29.98;;;;;;;20.63;97.64;69068.50;4939589;29;20035;-79
2022/08/26 07:01:02;;;;;;;36.30;29.95;;;;;;;;;;4937534;29;20066;-79
2022/08/26 07:03:27;;;;;;;36.38;28.77;;;;;;;20.70;97.44;69077.09;4934093;29;20059;-79
2022/08/26 07:05:59;;;;;;;34.92;30.00;;;;;;;20.75;98.01;69081.69;4932645;29;20100;-79
2022/08/26 07:08:24;;;;;;;38.67;31.52;;;;;;;;;;4917255;29;20039;-79
2022/08/26 07:10:50;;;;;;;37.67;32.40;;;;;;;;;;4933219;29;20036;-79
2022/08/26 07:13:15;;;;;;;37.50;31.10;;;;;;;20.85;96.99;69093.69;4934613;29;20755;-78
2022/08/26 07:15:41;;;;;;;36.55;30.30;;;;;;;20.88;96.79;69096.53;4930355;29;20276;-79
2022/08/26 07:18:08;;;;;;;38.65;31.52;;;;;;;20.87;96.33;69098.69;4936652;29;20043;-79
2022/08/26 07:20:42;;;;;;;36.58;31.55;;;;;;;20.87;96.55;69090.00;4935272;29;20047;-79
2022/08/26 07:23:08;;;;;;;37.92;30.85;;;;;;;;;;4929463;29;20102;-78
2022/08/26 07:25:38;;;;;;;35.95;29.23;;;;;;;21.00;96.20;69109.69;4932900;29;20051;-78
2022/08/26 07:28:03;;;;;;;36.38;30.58;;;;;;;;;;4932102;29;20051;-79
2022/08/26 07:30:29;;;;;;;32.83;29.42;;;;;;;;;;4934313;29;20036;-79
2022/08/26 07:32:56;;;;;;;34.50;30.83;;;;;;;20.99;95.51;69109.13;4938325;29;20039;-79
2022/08/26 07:35:21;;;;;;;32.15;28.10;;;;;;;21.06;95.59;69109.03;4927428;29;20335;-79
2022/08/26 07:37:47;;;;;;;34.50;29.65;;;;;;;21.07;95.21;69117.72;4917164;29;20035;-79
2022/08/26 07:40:12;;;;;;;33.53;27.67;;;;;;;;;;4932985;29;20686;-79
2022/08/26 07:42:38;;;;;;;35.20;28.23;;;;;;;21.00;95.82;69104.84;4916165;29;20039;-78
2022/08/26 07:45:05;;;;;;;33.67;27.05;;;;;;;21.01;94.63;69110.84;4931835;29;20119;-78
2022/08/26 07:47:30;;;;;;;36.05;28.90;;;;;;;;;;4912242;29;20050;-79
2022/08/26 07:49:56;;;;;;;34.20;26.60;;;;;;;;;;4914880;29;20047;-79
2022/08/26 07:52:22;;;;;;;33.13;26.08;;;;;;;21.12;94.60;69124.00;4931347;29;20039;-79
2022/08/26 07:54:48;;;;;;;37.83;28.35;;;;;;;21.06;95.49;69121.97;4933394;29;20048;-79
2022/08/26 07:57:13;;;;;;;34.80;28.95;;;;;;;21.10;95.13;69115.72;4929338;29;20139;-79
2022/08/26 07:59:38;;;;;;;30.02;26.50;;;;;;;21.10;94.98;69121.16;4931823;29;20665;-79
2022/08/26 08:02:04;;;;;;;29.35;24.73;;;;;;;21.15;94.37;69127.44;4934887;29;20047;-78
2022/08/26 08:04:29;;;;;;;32.08;25.85;;;;;;;;;;4934212;29;20704;-78
2022/08/26 08:06:55;;;;;;;28.58;24.63;;;;;;;21.25;93.90;69141.00;4933557;29;20040;-78
2022/08/26 08:09:20;;;;;;;30.58;23.48;;;;;;;;;;4933048;29;20450;-79
2022/08/26 08:11:48;;;;;;;29.02;21.70;;;;;;;21.32;93.55;69149.03;4936238;29;20044;-79
2022/08/26 08:14:14;;;;;;;26.90;22.27;;;;;;;;;;4931889;29;20754;-78
2022/08/26 08:16:40;;;;;;;26.58;21.80;;;;;;;21.26;93.52;69138.88;4935012;29;20055;-78
2022/08/26 08:19:05;;;;;;;23.42;20.23;;;;;;;21.22;93.25;69134.31;4933757;29;20091;-78
2022/08/26 08:21:30;;;;;;;23.42;20.02;;;;;;;;;;4934690;29;20126;-78
2022/08/26 08:23:57;;;;;;;26.02;19.05;;;;;;;21.29;93.75;69137.47;4934587;29;20078;-78
2022/08/26 08:26:23;;;;;;;21.70;17.70;;;;;;;;;;4930539;29;20079;-78
2022/08/26 08:28:48;;;;;;;23.80;17.40;;;;;;;;;;4933064;29;20052;-78
2022/08/26 08:31:22;;;;;;;22.27;19.17;;;;;;;21.28;92.74;69141.72;4932117;29;20108;-78
2022/08/26 08:33:48;;;;;;;22.42;19.05;;;;;;;;;;4933819;29;20044;-78
2022/08/26 08:36:15;;;;;;;26.73;17.15;;;;;;;21.29;92.43;69142.31;4931845;29;20130;-78
2022/08/26 08:38:40;;;;;;;21.50;16.80;;;;;;;;;;4933492;29;20116;-79
2022/08/26 08:41:35;;;;;;;21.58;17.17;;;;;;;21.22;93.02;69134.88;4914581;29;20553;-79
2022/08/26 08:44:01;;;;;;;21.13;15.93;;;;;;;21.23;92.12;69136.00;4930144;29;20043;-79
2022/08/26 08:46:28;;;;;;;21.77;15.88;;;;;;;21.29;92.41;69142.88;4931732;29;20384;-79
2022/08/26 08:48:55;;;;;;;18.85;14.13;;;;;;;;;;4933603;29;20086;-79
2022/08/26 08:51:40;;;;;;;18.15;13.10;;;;;;;21.51;91.40;69166.94;4929684;29;20336;-79
2022/08/26 08:54:07;;;;;;;22.05;15.82;;;;;;;21.58;91.36;69174.97;4930520;29;20586;-79
2022/08/26 08:57:04;;;;;;;18.65;15.90;;;;;;;21.63;89.94;69175.25;4914555;29;21769;-78
2022/08/26 08:59:33;;;;;;;18.42;13.88;;;;;;;21.62;89.81;69179.53;4929934;29;20246;-78
2022/08/26 09:02:14;;;;;;;16.75;13.82;;;;;;;21.56;90.08;69167.81;4932286;29;20048;-78
2022/08/26 09:05:07;;;;;;;17.20;12.55;;;;;;;21.66;89.79;69186.22;4933838;29;20035;-78
2022/08/26 09:07:37;;;;;;;17.00;12.45;;;;;;;21.65;90.00;69182.38;4933180;29;20115;-78
2022/08/26 09:10:02;;;;;;;19.15;13.27;;;;;;;;;;4915990;29;20670;-78
2022/08/26 09:12:31;;;;;;;17.60;13.70;;;;;;;21.72;89.00;69185.56;4933475;29;20054;-78
2022/08/26 09:15:01;;;;;;;17.58;11.82;;;;;;;;;;4932592;29;20295;-78
2022/08/26 09:17:38;;;;;;;13.52;10.68;;;;;;;21.76;88.64;69190.13;4933485;29;20424;-78
2022/08/26 09:20:12;;;;;;;15.90;10.65;;;;;;;;;;4930326;29;20071;-78
2022/08/26 09:22:39;;;;;;;15.63;10.40;;;;;;;21.74;88.27;69192.69;4930824;29;20055;-78
2022/08/26 09:25:09;;;;;;;15.90;12.68;;;;;;;21.79;88.50;69198.41;4930236;29;20036;-78
2022/08/26 09:27:47;;;;;;;14.73;10.35;;;;;;;21.81;87.47;69195.84;4932962;29;20043;-78
2022/08/26 09:30:22;;;;;;;14.35;10.13;;;;;;;21.88;87.86;69202.72;4933504;29;20070;-78
2022/08/26 09:33:07;;;;;;;14.82;9.77;;;;;;;21.95;87.39;69216.16;4916234;29;20547;-78
2022/08/26 09:35:37;;;;;;;12.07;9.20;;;;;;;21.94;86.92;69215.00;4934223;29;20059;-78
2022/08/26 09:38:24;;;;;;;12.90;8.05;;;;;;;21.93;87.74;69213.88;4928658;29;20027;-78
2022/08/26 09:41:03;;;;;;;14.82;8.20;;;;;;;21.96;87.27;69211.88;4921766;29;20048;-78
2022/08/26 09:43:28;;;;;;;13.52;8.38;;;;;;;;;;4923743;29;20079;-77
2022/08/26 09:46:07;;;;;;;11.55;7.75;;;;;;;;;;4924678;29;20063;-77
2022/08/26 09:48:34;;;;;;;12.35;7.43;;;;;;;;;;4922832;29;20059;-79
2022/08/26 09:51:01;;;;;;;16.52;7.60;;;;;;;;;;4925898;29;20047;-79
2022/08/26 09:53:29;;;;;;;12.63;7.10;;;;;;;22.10;86.55;69227.91;4906868;29;20055;-77
2022/08/26 09:56:10;;;;;;;13.68;6.75;;;;;;;;;;4925206;29;20032;-81
2022/08/26 09:58:36;;;;;;;16.23;5.72;;;;;;;;;;4921861;29;20055;-78
2022/08/26 10:01:06;;;;;;;12.98;5.45;;;;;;;22.21;86.61;69245.94;4925438;29;20043;-78
2022/08/26 10:03:35;;;;;;;11.98;4.90;;;;;;;22.25;86.82;69241.81;4923490;29;20040;-80
2022/08/26 10:06:05;;;;;;;12.23;6.20;;;;;;;22.23;85.83;69247.66;4923642;29;20495;-77
2022/08/26 10:08:37;;;;;;;11.98;5.93;;;;;;;22.16;85.82;69240.19;4923086;29;20545;-79
2022/08/26 10:11:11;;;;;;;13.30;6.00;;;;;;;22.18;86.50;69237.09;4925705;29;20046;-79
2022/08/26 10:13:41;;;;;;;11.23;5.80;;;;;;;22.23;86.47;69248.22;4923636;29;20044;-79
2022/08/26 10:16:13;;;;;;;12.25;5.65;;;;;;;;;;4909421;29;21557;-78
2022/08/26 10:18:46;;;;;;;15.82;6.22;;;;;;;22.26;85.85;69245.66;4920749;29;20654;-78
2022/08/26 10:21:16;;;;;;;14.80;6.47;;;;;;;;;;4924409;29;20518;-77
2022/08/26 10:23:47;;;;;;;12.75;5.95;;;;;;;;;;4905786;29;20039;-77
2022/08/26 10:26:25;;;;;;;11.85;5.95;;;;;;;22.24;85.53;69249.38;4922625;29;20032;-80
2022/08/26 10:29:06;;;;;;;10.37;5.77;;;;;;;22.23;84.89;69247.66;4906070;29;20057;-79
2022/08/26 10:31:55;;;;;;;11.77;6.18;;;;;;;22.17;85.68;69241.34;4921403;29;20183;-80
2022/08/26 10:34:21;;;;;;;12.23;5.47;;;;;;;22.22;84.91;69246.53;4922307;29;20044;-80
2022/08/26 10:36:56;;;;;;;12.00;6.20;;;;;;;22.25;85.47;69250.53;4922970;29;20044;-79
2022/08/26 10:39:35;;;;;;;14.15;5.97;;;;;;;22.28;85.08;69245.25;4924068;29;20052;-79
2022/08/26 10:42:12;;;;;;;10.98;6.20;;;;;;;22.34;84.50;69259.69;4924793;29;20534;-78
2022/08/26 10:44:38;;;;;;;9.98;6.22;;;;;;;;;;4910839;29;20768;-80
2022/08/26 10:47:20;;;;;;;12.63;6.20;;;;;;;22.45;83.71;69267.44;4927779;29;20044;-78
2022/08/26 10:49:50;;;;;;;11.73;6.90;;;;;;;22.50;82.84;69278.03;4929464;29;20059;-78
2022/08/26 10:52:23;;;;;;;11.02;5.80;;;;;;;22.48;82.96;69276.28;4921932;29;20403;-78
2022/08/26 10:55:05;;;;;;;11.23;6.20;;;;;;;22.49;83.40;69271.44;4925004;29;20395;-78
2022/08/26 10:58:02;;;;;;;11.23;6.13;;;;;;;22.48;83.10;69276.28;4926575;29;20389;-78
2022/08/26 11:03:25;;;;;;;12.82;6.15;;;;;;;;;;4926098;29;20750;-78
2022/08/26 11:06:15;;;;;;;11.38;5.97;;;;;;;22.47;83.32;69269.72;4928286;29;20051;-80
2022/08/26 11:08:46;;;;;;;11.25;5.55;;;;;;;22.52;82.99;69275.44;4923442;29;20044;-80
2022/08/26 11:11:40;;;;;;;10.88;5.53;;;;;;;22.55;83.36;69277.72;4928540;29;20066;-78
2022/08/26 11:14:28;;;;;;;11.48;5.63;;;;;;;22.54;83.12;69285.31;4920908;29;20106;-78
2022/08/26 11:16:55;;;;;;;10.75;5.55;;;;;;;22.66;83.01;69290.34;4929356;29;20040;-78
2022/08/26 11:19:30;;;;;;;9.25;5.13;;;;;;;22.71;82.58;69301.50;4932284;29;20091;-78
2022/08/26 11:22:04;;;;;;;9.65;6.00;;;;;;;22.73;82.40;69298.94;4936241;29;20107;-78
2022/08/26 11:24:39;;;;;;;12.48;6.55;;;;;;;;;;4934111;29;20092;-78
2022/08/26 11:27:07;;;;;;;11.05;5.85;;;;;;;22.60;82.79;69283.47;4935694;29;20047;-78
2022/08/26 11:29:52;;;;;;;9.55;5.60;;;;;;;;;;4935019;29;20051;-78
2022/08/26 11:32:43;;;;;;;9.23;5.35;;;;;;;22.55;82.40;69283.72;4934004;29;20048;-78
2022/08/26 11:35:10;;;;;;;12.43;5.20;;;;;;;;;;4930588;29;20158;-78
2022/08/26 11:37:56;;;;;;;9.50;3.95;;;;;;;;;;4933012;29;20111;-78
2022/08/26 11:40:30;;;;;;;9.90;3.92;;;;;;;22.77;82.51;69302.38;4947111;29;20066;-78
2022/08/26 11:42:59;;;;;;;11.73;5.32;;;;;;;22.72;80.99;69297.78;4953570;29;20122;-78
2022/08/26 11:45:25;;;;;;;;;;;;;;;;;;4956885;28;20099;-78
2022/08/26 11:47:51;;;;;;;10.73;5.03;;;;;;;22.57;81.22;69277.88;4957590;29;19958;-78
2022/08/26 11:50:24;;;;;;;9.90;4.90;;;;;;;22.60;81.34;69281.31;4958271;29;20047;-78
2022/08/26 11:53:03;;;;;;;10.38;4.82;;;;;;;22.63;80.79;69292.91;4924279;29;20056;-78
2022/08/26 11:55:30;;;;;;;;;;;;;;;22.71;80.41;69296.06;4928940;29;20519;-78
2022/08/26 11:57:59;;;;;;;10.52;4.72;;;;;;;22.71;80.69;69296.63;4912570;29;19950;-78
2022/08/26 12:00:50;;;;;;;7.80;4.80;;;;;;;22.74;80.65;69305.50;4934238;29;20126;-78
2022/08/26 12:03:18;;;;;;;10.48;5.20;;;;;;;;;;4934636;29;20095;-78
2022/08/26 12:05:48;;;;;;;11.05;4.85;;;;;;;22.77;80.17;69299.66;4938362;29;20044;-78
2022/08/26 12:08:16;;;;;;;8.63;5.80;;;;;;;;;;4948214;29;20107;-78
2022/08/26 12:10:42;;;;;;;;;;;;;;;22.82;79.28;69308.66;4933695;29;20657;-78
2022/08/26 12:13:19;;;;;;;10.35;5.90;;;;;;;22.75;79.14;69301.19;4938365;29;19922;-78